Weather at Palm Beach County Judicial Center Heliport

Public forecast

Using degrees Fahrenheit for public forecast. Weather courtesy of forecast.io.

Closest aviation weather report (METAR) to Palm Beach County Judicial Center Heliport

Closest report is Palm Beach International Airport, 2.9 nm (5.5 km) SW. Retrieved 2021/10/16 02:53 UTC (43 minutes ago):

KPBI 160253Z 06004KT 10SM FEW029 FEW250 27/21 A2995 RMK AO2 SLP141 T02720211 51010

Closest aviation forecast (TAF) to Palm Beach County Judicial Center Heliport

Closest forecast is Palm Beach International Airport, 2.9 nm (5.5 km) SW. Retrieved 2021-10-16 00:25 UTC (3 hours ago):

TAF KPBI 152320Z 1600/1624 VRB03KT P6SM FEW035 SCT250 FM161500 32005KT P6SM FEW030 SCT250